createdAt,value
2023-01-26T00:02:16.209Z,0.00
2023-01-26T00:04:47.322Z,0.00
2023-01-26T00:07:17.064Z,-0.10
2023-01-26T00:09:46.921Z,-0.10
2023-01-26T00:12:14.815Z,0.00
2023-01-26T00:14:53.527Z,0.00
2023-01-26T00:17:29.634Z,0.00
2023-01-26T00:20:01.154Z,0.00
2023-01-26T00:22:30.881Z,0.00
2023-01-26T00:25:00.578Z,0.00
2023-01-26T00:27:30.468Z,0.10
2023-01-26T00:30:00.319Z,0.10
2023-01-26T00:32:30.058Z,0.00
2023-01-26T00:35:01.061Z,-0.10
2023-01-26T00:37:30.870Z,-0.40
2023-01-26T00:40:00.711Z,-0.40
2023-01-26T00:42:30.526Z,-0.50
2023-01-26T00:45:00.291Z,-0.40
2023-01-26T00:47:29.978Z,-0.40
2023-01-26T00:50:01.053Z,-0.40
2023-01-26T00:52:30.790Z,-0.30
2023-01-26T00:55:00.600Z,-0.10
2023-01-26T00:57:30.430Z,-0.10
2023-01-26T01:00:00.274Z,-0.10
2023-01-26T01:02:30.436Z,-0.10
2023-01-26T01:05:01.335Z,-0.20
2023-01-26T01:07:31.216Z,-0.20
2023-01-26T01:10:01.045Z,-0.20
2023-01-26T01:12:30.889Z,-0.20
2023-01-26T01:15:00.851Z,-0.10
2023-01-26T01:17:30.388Z,0.00
2023-01-26T01:20:01.546Z,0.00
2023-01-26T01:22:31.378Z,0.00
2023-01-26T01:25:01.296Z,0.10
2023-01-26T01:27:30.965Z,0.10
2023-01-26T01:30:07.764Z,0.10
2023-01-26T01:32:39.962Z,0.10
2023-01-26T01:35:12.489Z,0.10
2023-01-26T01:37:42.397Z,0.10
2023-01-26T01:40:15.246Z,0.10
2023-01-26T01:42:50.696Z,0.10
2023-01-26T01:45:41.979Z,0.10
2023-01-26T01:48:16.164Z,0.10
2023-01-26T01:50:48.324Z,0.10
2023-01-26T01:53:27.588Z,0.10
2023-01-26T01:56:00.966Z,0.20
2023-01-26T01:58:38.210Z,0.10
2023-01-26T02:01:09.377Z,0.10
2023-01-26T02:03:42.693Z,0.10
2023-01-26T02:06:17.088Z,0.10
2023-01-26T02:08:49.731Z,0.10
2023-01-26T02:11:24.248Z,0.10
2023-01-26T02:13:55.369Z,0.10
2023-01-26T02:16:25.329Z,0.10
2023-01-26T02:18:55.393Z,0.10
2023-01-26T02:21:29.562Z,0.00
2023-01-26T02:24:06.893Z,0.00
2023-01-26T02:26:39.297Z,0.00
2023-01-26T02:29:12.358Z,0.00
2023-01-26T02:31:43.652Z,0.00
2023-01-26T02:34:13.561Z,-0.10
2023-01-26T02:36:43.446Z,-0.20
2023-01-26T02:39:23.434Z,-0.20
2023-01-26T02:42:13.433Z,-0.20
2023-01-26T02:44:44.223Z,-0.20
2023-01-26T02:47:15.795Z,-0.20
2023-01-26T02:49:47.788Z,-0.20
2023-01-26T02:52:19.211Z,-0.30
2023-01-26T02:55:06.460Z,-0.20
2023-01-26T02:57:38.673Z,-0.30
2023-01-26T03:00:13.656Z,-0.30
2023-01-26T03:02:48.202Z,-0.30
2023-01-26T03:05:18.082Z,-0.30
2023-01-26T03:07:47.777Z,-0.40
2023-01-26T03:10:18.232Z,-0.40
2023-01-26T03:12:49.481Z,-0.40
2023-01-26T03:15:37.163Z,-0.30
2023-01-26T03:18:26.719Z,-0.50
2023-01-26T03:21:14.197Z,-0.40
2023-01-26T03:24:01.765Z,-0.40
2023-01-26T03:26:49.250Z,-0.50
2023-01-26T03:29:20.239Z,-0.50
2023-01-26T03:31:49.993Z,-0.40
2023-01-26T03:34:20.436Z,-0.50
2023-01-26T03:36:50.240Z,-0.50
2023-01-26T03:39:37.818Z,-0.50
2023-01-26T03:42:25.416Z,-0.40
2023-01-26T03:45:14.184Z,-0.50
2023-01-26T03:48:01.623Z,-0.50
2023-01-26T03:50:49.061Z,-0.50
2023-01-26T03:53:37.798Z,-0.50
2023-01-26T03:56:23.172Z,-0.50
2023-01-26T03:58:54.867Z,-0.60
2023-01-26T04:01:28.037Z,-0.60
2023-01-26T04:04:16.226Z,-0.60
2023-01-26T04:07:05.168Z,-0.50
2023-01-26T04:09:35.220Z,-0.50
2023-01-26T04:12:05.621Z,-0.50
2023-01-26T04:14:52.873Z,-0.50
2023-01-26T04:17:41.807Z,-0.60
2023-01-26T04:20:31.630Z,-0.50
2023-01-26T04:23:05.532Z,-0.50
2023-01-26T04:25:35.233Z,-0.50
2023-01-26T04:28:04.995Z,-0.50
2023-01-26T04:30:34.822Z,-0.50
2023-01-26T04:33:05.844Z,-0.50
2023-01-26T04:35:36.593Z,-0.60
2023-01-26T04:38:06.460Z,-0.50
2023-01-26T04:40:36.221Z,-0.50
2023-01-26T04:43:06.013Z,-0.50
2023-01-26T04:45:35.826Z,-0.60
2023-01-26T04:48:07.851Z,-0.60
2023-01-26T04:50:37.606Z,-0.70
2023-01-26T04:53:07.470Z,-0.70
2023-01-26T04:55:37.574Z,-0.60
2023-01-26T04:58:07.074Z,-0.60
2023-01-26T05:00:36.811Z,-0.60
2023-01-26T05:03:10.514Z,-0.60
2023-01-26T05:05:40.728Z,-0.60
2023-01-26T05:08:10.714Z,-0.70
2023-01-26T05:10:40.707Z,-0.60
2023-01-26T05:13:12.452Z,-0.60
2023-01-26T05:15:43.174Z,-0.60
2023-01-26T05:18:14.761Z,-0.70
2023-01-26T05:20:44.602Z,-0.70
2023-01-26T05:23:15.900Z,-0.70
2023-01-26T05:25:45.755Z,-0.70
2023-01-26T05:28:17.741Z,-0.80
2023-01-26T05:30:47.885Z,-0.60
2023-01-26T05:33:21.975Z,-0.60
2023-01-26T05:35:52.810Z,-0.60
2023-01-26T05:38:22.824Z,-0.70
2023-01-26T05:40:52.584Z,-0.60
2023-01-26T05:43:22.432Z,-0.60
2023-01-26T05:45:52.451Z,-0.50
2023-01-26T05:48:23.593Z,-0.50
2023-01-26T05:50:53.372Z,-0.50
2023-01-26T05:53:23.141Z,-0.70
2023-01-26T05:55:52.996Z,-0.80
2023-01-26T05:58:22.869Z,-0.70
2023-01-26T06:00:52.658Z,-0.60
2023-01-26T06:03:23.762Z,-0.60
2023-01-26T06:05:56.456Z,-0.50
2023-01-26T06:08:26.313Z,-0.60
2023-01-26T06:10:59.442Z,-0.50
2023-01-26T06:13:29.096Z,-0.50
2023-01-26T06:16:01.096Z,-0.50
2023-01-26T06:18:32.037Z,-0.50
2023-01-26T06:21:02.498Z,-0.50
2023-01-26T06:23:32.604Z,-0.40
2023-01-26T06:26:02.649Z,-0.50
2023-01-26T06:28:36.169Z,-0.50
2023-01-26T06:31:07.402Z,-0.50
2023-01-26T06:33:39.765Z,-0.50
2023-01-26T06:36:10.080Z,-0.50
2023-01-26T06:38:40.410Z,-0.50
2023-01-26T06:41:10.649Z,-0.70
2023-01-26T06:43:40.534Z,-0.60
2023-01-26T06:46:10.346Z,-0.50
2023-01-26T06:48:42.063Z,-0.50
2023-01-26T06:51:44.896Z,-0.50
2023-01-26T06:54:15.513Z,-0.50
2023-01-26T06:56:45.730Z,-0.40
2023-01-26T06:59:15.583Z,-0.60
2023-01-26T07:01:47.107Z,-0.60
2023-01-26T07:04:18.544Z,-0.50
2023-01-26T07:06:48.350Z,-0.60
2023-01-26T07:09:18.273Z,-0.50
2023-01-26T07:11:47.907Z,-0.50
2023-01-26T07:14:17.490Z,-0.60
2023-01-26T07:16:47.185Z,-0.50
2023-01-26T07:19:18.433Z,-0.50
2023-01-26T07:21:48.719Z,-0.60
2023-01-26T07:24:19.259Z,-0.50
2023-01-26T07:26:49.045Z,-0.60
2023-01-26T07:29:18.942Z,-0.50
2023-01-26T07:31:48.774Z,-0.70
2023-01-26T07:34:20.691Z,-0.70
2023-01-26T07:36:52.264Z,-0.60
2023-01-26T07:39:22.055Z,-0.60
2023-01-26T07:41:52.513Z,-0.50
2023-01-26T07:44:22.140Z,-0.60
2023-01-26T07:46:53.371Z,-0.50
2023-01-26T07:49:24.622Z,-0.70
2023-01-26T07:51:54.637Z,-0.60
2023-01-26T07:54:24.706Z,-0.50
2023-01-26T07:56:55.516Z,-0.70
2023-01-26T07:59:25.596Z,-0.60
2023-01-26T08:01:55.565Z,-0.60
2023-01-26T08:04:26.495Z,-0.60
2023-01-26T08:07:06.230Z,-0.60
2023-01-26T08:09:36.163Z,-0.50
2023-01-26T08:12:05.866Z,-0.50
2023-01-26T08:14:46.452Z,-0.50
2023-01-26T08:17:17.453Z,-0.60
2023-01-26T08:19:48.921Z,-0.50
2023-01-26T08:22:18.730Z,-0.60
2023-01-26T08:24:48.801Z,-0.50
2023-01-26T08:27:18.700Z,-0.60
2023-01-26T08:29:48.247Z,-0.60
2023-01-26T08:32:17.933Z,-0.60
2023-01-26T08:34:49.092Z,-0.70
2023-01-26T08:37:18.958Z,-0.80
2023-01-26T08:39:48.855Z,-0.80
2023-01-26T08:42:20.249Z,-0.70
2023-01-26T08:44:52.857Z,-0.80
2023-01-26T08:47:22.609Z,-0.80
2023-01-26T08:49:53.699Z,-0.80
2023-01-26T08:52:23.603Z,-0.70
2023-01-26T08:54:53.218Z,-0.70
2023-01-26T08:57:22.996Z,-0.70
2023-01-26T08:59:52.902Z,-0.60
2023-01-26T09:02:22.748Z,-0.70
2023-01-26T09:04:54.189Z,-0.70
2023-01-26T09:07:26.701Z,-0.80
2023-01-26T09:09:56.481Z,-0.70
2023-01-26T09:12:26.240Z,-0.60
2023-01-26T09:14:56.079Z,-0.50
2023-01-26T09:17:25.927Z,-0.50
2023-01-26T09:19:56.888Z,-0.60
2023-01-26T09:22:26.747Z,-0.60
2023-01-26T09:24:56.514Z,-0.60
2023-01-26T09:27:26.332Z,-0.60
2023-01-26T09:29:56.309Z,-0.60
2023-01-26T09:32:26.416Z,-0.70
2023-01-26T09:34:57.593Z,-0.60
2023-01-26T09:37:27.453Z,-0.50
2023-01-26T09:39:57.284Z,-0.60
2023-01-26T09:42:34.824Z,-0.50
2023-01-26T09:45:16.552Z,-0.50
2023-01-26T09:47:57.222Z,-0.50
2023-01-26T09:50:32.684Z,-0.40
2023-01-26T09:53:08.098Z,-0.60
2023-01-26T09:55:38.381Z,-0.60
2023-01-26T09:58:13.819Z,-0.50
2023-01-26T10:00:48.699Z,-0.60
2023-01-26T10:03:29.989Z,-0.60
2023-01-26T10:06:07.131Z,-0.60
2023-01-26T10:08:37.200Z,-0.80
2023-01-26T10:11:16.841Z,-0.70
2023-01-26T10:13:55.319Z,-0.70
2023-01-26T10:16:26.122Z,-0.70
2023-01-26T10:19:01.543Z,-0.50
2023-01-26T10:21:38.482Z,-0.50
2023-01-26T10:24:10.800Z,-0.50
2023-01-26T10:26:40.781Z,-0.50
2023-01-26T10:29:16.864Z,-0.50
2023-01-26T10:31:47.824Z,-0.50
2023-01-26T10:34:23.569Z,-0.50
2023-01-26T10:37:02.869Z,-0.50
2023-01-26T10:39:32.479Z,-0.50
2023-01-26T10:42:03.633Z,-0.50
2023-01-26T10:44:35.938Z,-0.50
2023-01-26T10:47:06.997Z,-0.60
2023-01-26T10:49:36.561Z,-0.50
2023-01-26T10:52:18.498Z,-0.50
2023-01-26T10:54:48.876Z,-0.60
2023-01-26T10:57:26.018Z,-0.60
2023-01-26T10:59:59.885Z,-0.50
2023-01-26T11:02:35.542Z,-0.40
2023-01-26T11:05:15.352Z,-0.40
2023-01-26T11:07:47.381Z,-0.40
2023-01-26T11:10:21.207Z,-0.40
2023-01-26T11:12:51.621Z,-0.40
2023-01-26T11:15:22.890Z,-0.50
2023-01-26T11:17:59.796Z,-0.50
2023-01-26T11:20:49.300Z,-0.40
2023-01-26T11:23:25.910Z,-0.30
2023-01-26T11:26:16.468Z,-0.40
2023-01-26T11:28:56.863Z,-0.40
2023-01-26T11:31:33.685Z,-0.30
2023-01-26T11:34:10.831Z,-0.20
2023-01-26T11:36:50.887Z,-0.20
2023-01-26T11:39:29.436Z,-0.20
2023-01-26T11:42:19.003Z,-0.30
2023-01-26T11:44:56.800Z,-0.20
2023-01-26T11:47:38.873Z,-0.20
2023-01-26T11:50:33.555Z,-0.20
2023-01-26T11:53:30.724Z,0.00
2023-01-26T11:56:17.933Z,-0.20
2023-01-26T11:58:53.035Z,0.00
2023-01-26T12:01:28.965Z,0.20
2023-01-26T12:03:59.417Z,0.30
2023-01-26T12:06:37.422Z,0.30
2023-01-26T12:09:19.974Z,0.20
2023-01-26T12:11:57.987Z,-0.30
2023-01-26T12:14:35.367Z,-0.50
2023-01-26T12:17:19.704Z,-0.40
2023-01-26T12:19:53.763Z,-0.40
2023-01-26T12:22:29.025Z,-0.40
2023-01-26T12:25:20.455Z,-0.20
2023-01-26T12:27:57.284Z,-0.20
2023-01-26T12:30:35.437Z,-0.20
2023-01-26T12:33:05.462Z,-0.20
2023-01-26T12:35:44.502Z,0.00
2023-01-26T12:38:19.238Z,0.00
2023-01-26T12:40:59.539Z,-0.30
2023-01-26T12:43:44.643Z,-0.30
2023-01-26T12:46:15.680Z,-0.40
2023-01-26T12:48:47.121Z,-0.40
2023-01-26T12:51:21.152Z,-0.10
2023-01-26T12:53:54.869Z,0.00
2023-01-26T12:56:29.825Z,0.00
2023-01-26T12:59:06.173Z,0.00
2023-01-26T13:01:42.510Z,0.10
2023-01-26T13:04:15.477Z,0.20
2023-01-26T13:06:45.446Z,0.00
2023-01-26T13:09:25.837Z,0.00
2023-01-26T13:11:58.259Z,0.20
2023-01-26T13:14:55.937Z,0.20
2023-01-26T13:17:51.020Z,0.20
2023-01-26T13:20:28.842Z,0.20
2023-01-26T13:22:58.848Z,0.20
2023-01-26T13:25:32.332Z,0.10
2023-01-26T13:28:14.052Z,0.20
2023-01-26T13:30:49.557Z,0.20
2023-01-26T13:33:24.028Z,0.10
2023-01-26T13:35:55.568Z,0.10
2023-01-26T13:38:34.189Z,0.20
2023-01-26T13:41:08.439Z,0.20
2023-01-26T13:43:42.783Z,0.20
2023-01-26T13:46:20.962Z,0.20
2023-01-26T13:48:53.372Z,0.20
2023-01-26T13:51:24.313Z,0.30
2023-01-26T13:53:59.790Z,0.30
2023-01-26T13:56:31.289Z,0.00
2023-01-26T13:59:11.543Z,0.00
2023-01-26T14:01:49.186Z,0.10
2023-01-26T14:04:22.044Z,0.20
2023-01-26T14:06:56.328Z,0.40
2023-01-26T14:09:27.137Z,0.40
2023-01-26T14:12:02.646Z,0.40
2023-01-26T14:14:37.372Z,0.30
2023-01-26T14:17:24.421Z,0.30
2023-01-26T14:19:55.912Z,0.10
2023-01-26T14:22:25.773Z,0.20
2023-01-26T14:24:56.708Z,0.10
2023-01-26T14:27:36.572Z,0.10
2023-01-26T14:30:22.928Z,-0.30
2023-01-26T14:32:57.611Z,-0.20
2023-01-26T14:35:29.064Z,-0.10
2023-01-26T14:38:07.417Z,0.00
2023-01-26T14:40:37.082Z,0.10
2023-01-26T14:43:07.030Z,0.20
2023-01-26T14:45:37.149Z,0.10
2023-01-26T14:48:14.222Z,0.20
2023-01-26T14:50:47.913Z,0.20
2023-01-26T14:53:22.170Z,0.20
2023-01-26T14:55:53.164Z,0.30
2023-01-26T14:58:26.199Z,0.20
2023-01-26T15:00:58.297Z,0.00
2023-01-26T15:03:30.808Z,0.00
2023-01-26T15:06:08.500Z,0.10
2023-01-26T15:08:38.734Z,0.20
2023-01-26T15:11:27.028Z,0.20
2023-01-26T15:13:57.827Z,0.20
2023-01-26T15:16:28.045Z,0.10
2023-01-26T15:19:02.937Z,0.20
2023-01-26T15:21:39.440Z,0.10
2023-01-26T15:24:13.237Z,0.20
2023-01-26T15:26:43.441Z,0.00
2023-01-26T15:29:24.855Z,0.00
2023-01-26T15:31:56.732Z,0.10
2023-01-26T15:34:33.515Z,0.20
2023-01-26T15:37:24.607Z,0.20
2023-01-26T15:39:55.643Z,0.30
2023-01-26T15:42:30.031Z,0.20
2023-01-26T15:44:59.788Z,0.30
2023-01-26T15:47:29.558Z,0.20
2023-01-26T15:49:59.508Z,0.20
2023-01-26T15:52:32.159Z,0.10
2023-01-26T15:55:03.292Z,0.00
2023-01-26T15:57:33.472Z,0.00
2023-01-26T16:00:04.345Z,0.00
2023-01-26T16:02:33.854Z,0.00
2023-01-26T16:05:03.953Z,0.00
2023-01-26T16:07:33.527Z,0.00
2023-01-26T16:10:04.690Z,0.00
2023-01-26T16:12:34.435Z,-0.10
2023-01-26T16:15:06.848Z,0.00
2023-01-26T16:17:37.022Z,0.00
2023-01-26T16:20:07.861Z,-0.10
2023-01-26T16:22:37.645Z,0.00
2023-01-26T16:25:25.194Z,0.00
2023-01-26T16:27:56.664Z,0.00
2023-01-26T16:30:27.724Z,0.00
2023-01-26T16:32:57.612Z,-0.10
2023-01-26T16:35:29.683Z,-0.20
2023-01-26T16:37:59.551Z,-0.10
2023-01-26T16:40:30.693Z,0.00
2023-01-26T16:43:00.811Z,0.00
2023-01-26T16:45:30.530Z,0.00
2023-01-26T16:48:01.053Z,0.10
2023-01-26T16:50:31.726Z,-0.10
2023-01-26T16:53:03.482Z,-0.10
2023-01-26T16:55:34.382Z,-0.20
2023-01-26T16:58:04.400Z,-0.10
2023-01-26T17:00:33.839Z,-0.20
2023-01-26T17:03:03.563Z,-0.10
2023-01-26T17:05:33.212Z,-0.20
2023-01-26T17:08:03.000Z,-0.20
2023-01-26T17:10:34.174Z,-0.20
2023-01-26T17:13:04.042Z,-0.10
2023-01-26T17:15:34.827Z,-0.10
2023-01-26T17:18:04.424Z,-0.10
2023-01-26T17:20:34.133Z,-0.10
2023-01-26T17:23:03.816Z,-0.10
2023-01-26T17:25:35.320Z,-0.10
2023-01-26T17:28:05.270Z,-0.10
2023-01-26T17:30:35.263Z,-0.10
2023-01-26T17:33:05.210Z,-0.20
2023-01-26T17:35:34.751Z,-0.20
2023-01-26T17:38:04.342Z,-0.20
2023-01-26T17:40:36.675Z,-0.20
2023-01-26T17:43:06.328Z,-0.20
2023-01-26T17:45:36.116Z,-0.10
2023-01-26T17:48:05.938Z,-0.30
2023-01-26T17:50:35.789Z,-0.30
2023-01-26T17:53:06.686Z,-0.30
2023-01-26T17:55:40.027Z,-0.20
2023-01-26T17:58:10.949Z,-0.20
2023-01-26T18:00:40.967Z,-0.30
2023-01-26T18:03:11.987Z,-0.30
2023-01-26T18:05:50.394Z,-0.40
2023-01-26T18:08:20.391Z,-0.60
2023-01-26T18:10:57.632Z,-0.70
2023-01-26T18:13:27.430Z,-0.70
2023-01-26T18:15:56.937Z,-0.70
2023-01-26T18:18:30.935Z,-0.50
2023-01-26T18:21:10.393Z,-0.40
2023-01-26T18:23:40.806Z,-0.40
2023-01-26T18:26:11.831Z,-0.50
2023-01-26T18:28:42.832Z,-0.50
2023-01-26T18:31:11.914Z,-0.40
2023-01-26T18:33:41.917Z,-0.40
2023-01-26T18:36:13.739Z,-0.50
2023-01-26T18:38:45.349Z,-0.40
2023-01-26T18:41:18.585Z,-0.40
2023-01-26T18:43:51.112Z,-0.40
2023-01-26T18:46:21.654Z,-0.30
2023-01-26T18:48:52.672Z,-0.30
2023-01-26T18:51:22.626Z,-0.30
2023-01-26T18:53:52.519Z,-0.20
2023-01-26T18:56:23.534Z,-0.20
2023-01-26T18:58:55.341Z,-0.30
2023-01-26T19:01:26.128Z,-0.60
2023-01-26T19:03:55.992Z,-0.50
2023-01-26T19:06:28.274Z,-0.70
2023-01-26T19:09:00.972Z,-0.70
2023-01-26T19:11:34.167Z,-0.70
2023-01-26T19:14:05.165Z,-0.70
2023-01-26T19:16:35.884Z,-0.60
2023-01-26T19:19:04.926Z,-0.50
2023-01-26T19:21:34.785Z,-0.60
2023-01-26T19:24:06.116Z,-0.70
2023-01-26T19:26:37.302Z,-0.80
2023-01-26T19:29:07.131Z,-0.80
2023-01-26T19:31:37.883Z,-0.70
2023-01-26T19:34:12.933Z,-0.80
2023-01-26T19:36:42.730Z,-0.80
2023-01-26T19:39:14.485Z,-0.80
2023-01-26T19:41:46.713Z,-0.70
2023-01-26T19:44:16.418Z,-0.80
2023-01-26T19:46:46.194Z,-0.70
2023-01-26T19:49:17.215Z,-0.80
2023-01-26T19:51:46.768Z,-0.70
2023-01-26T19:54:16.856Z,-0.70
2023-01-26T19:56:48.180Z,-0.70
2023-01-26T19:59:18.123Z,-0.70
2023-01-26T20:01:48.018Z,-0.70
2023-01-26T20:04:17.847Z,-0.70
2023-01-26T20:06:50.002Z,-0.60
2023-01-26T20:09:19.861Z,-0.70
2023-01-26T20:11:52.666Z,-0.70
2023-01-26T20:14:25.050Z,-0.70
2023-01-26T20:16:55.603Z,-0.70
2023-01-26T20:19:26.143Z,-0.70
2023-01-26T20:21:56.215Z,-0.60
2023-01-26T20:24:26.414Z,-0.50
2023-01-26T20:26:57.905Z,-0.50
2023-01-26T20:29:27.820Z,-0.50
2023-01-26T20:31:57.649Z,-0.40
2023-01-26T20:34:27.622Z,-0.30
2023-01-26T20:37:00.128Z,-0.40
2023-01-26T20:39:30.469Z,-0.50
2023-01-26T20:42:01.583Z,-0.50
2023-01-26T20:44:31.219Z,-0.50
2023-01-26T20:47:01.055Z,-0.40
2023-01-26T20:49:30.773Z,-0.40
2023-01-26T20:52:00.809Z,-0.20
2023-01-26T20:54:31.495Z,-0.30
2023-01-26T20:57:02.715Z,-0.40
2023-01-26T20:59:32.565Z,-0.30
2023-01-26T21:02:02.377Z,-0.10
2023-01-26T21:04:32.460Z,-0.10
2023-01-26T21:07:02.538Z,0.00
2023-01-26T21:09:32.783Z,0.00
2023-01-26T21:12:04.156Z,0.00
2023-01-26T21:14:34.396Z,-0.20
2023-01-26T21:17:04.527Z,-0.20
2023-01-26T21:19:34.557Z,-0.10
2023-01-26T21:22:04.465Z,0.00
2023-01-26T21:24:35.825Z,0.10
2023-01-26T21:27:07.339Z,0.10
2023-01-26T21:29:40.320Z,0.10
2023-01-26T21:32:11.120Z,0.00
2023-01-26T21:34:40.851Z,0.10
2023-01-26T21:37:10.620Z,0.00
2023-01-26T21:39:40.441Z,0.00
2023-01-26T21:42:11.704Z,-0.10
2023-01-26T21:44:55.449Z,0.00
2023-01-26T21:47:25.718Z,0.10
2023-01-26T21:49:56.402Z,0.20
2023-01-26T21:52:44.935Z,0.20
2023-01-26T21:55:14.773Z,0.10
2023-01-26T21:58:03.658Z,0.10
2023-01-26T22:00:33.486Z,0.10
2023-01-26T22:03:03.430Z,0.10
2023-01-26T22:05:35.842Z,0.10
2023-01-26T22:08:08.365Z,0.10
2023-01-26T22:10:38.268Z,0.00
2023-01-26T22:13:09.525Z,0.00
2023-01-26T22:15:40.216Z,0.00
2023-01-26T22:18:09.767Z,0.00
2023-01-26T22:20:39.860Z,0.10
2023-01-26T22:23:10.422Z,0.10
2023-01-26T22:25:40.298Z,0.10
2023-01-26T22:28:11.419Z,0.10
2023-01-26T22:30:41.251Z,0.20
2023-01-26T22:33:11.198Z,0.10
2023-01-26T22:35:41.034Z,0.10
2023-01-26T22:38:13.164Z,0.20
2023-01-26T22:40:43.179Z,0.10
2023-01-26T22:43:14.300Z,0.10
2023-01-26T22:45:44.501Z,0.20
2023-01-26T22:48:14.319Z,0.20
2023-01-26T22:50:44.491Z,0.20
2023-01-26T22:53:14.436Z,0.30
2023-01-26T22:55:44.720Z,0.30
2023-01-26T22:58:15.885Z,0.20
2023-01-26T23:00:45.751Z,0.20
2023-01-26T23:03:15.859Z,0.20
2023-01-26T23:05:45.643Z,0.30
2023-01-26T23:08:15.177Z,0.20
2023-01-26T23:10:44.807Z,0.30
2023-01-26T23:13:15.872Z,0.20
2023-01-26T23:15:45.616Z,0.30
2023-01-26T23:18:15.445Z,0.30
2023-01-26T23:20:45.784Z,0.30
2023-01-26T23:23:15.713Z,0.20
2023-01-26T23:25:52.823Z,0.20
2023-01-26T23:28:26.057Z,0.20
2023-01-26T23:30:57.648Z,0.20
2023-01-26T23:33:29.183Z,0.20
2023-01-26T23:35:59.938Z,0.30
2023-01-26T23:38:31.908Z,0.20
2023-01-26T23:41:02.213Z,0.20
2023-01-26T23:43:33.379Z,0.20
2023-01-26T23:46:03.335Z,0.20
2023-01-26T23:48:33.273Z,0.20
2023-01-26T23:51:04.337Z,0.20
2023-01-26T23:53:34.522Z,0.20
2023-01-26T23:56:06.721Z,0.20
2023-01-26T23:58:38.803Z,0.20
